Time;durP1;ratioP1;P1;durP2;ratioP2;P2;SDS_P1;SDS_P2;PMS_P1;PMS_P2;Temp;Humidity;BMP_temperature;BMP_pressure;BME280_temperature;BME280_humidity;BME280_pressure;Samples;Min_cycle;Max_cycle;Signal;HPM_P1;HPM_P2
2023/04/30 00:01:56;;;;;;;;;;;;;;;17.97;46.81;99373.66;5092123;28;19916;-36
2023/04/30 00:04:21;;;;;;;;;;;;;;;18.07;46.88;99378.31;5092758;28;19969;-36
2023/04/30 00:06:46;;;;;;;;;;;;;;;18.03;47.35;99378.03;5092904;28;19923;-36
2023/04/30 00:09:12;;;;;;;;;;;;;;;18.05;47.28;99370.50;5092874;28;20327;-37
2023/04/30 00:11:37;;;;;;;;;;;;;;;18.06;47.42;99372.09;5093224;28;19969;-36
2023/04/30 00:14:03;;;;;;;;;;;;;;;18.17;47.37;99372.97;5093191;28;19915;-37
2023/04/30 00:16:28;;;;;;;;;;;;;;;17.95;48.34;99368.56;5092910;28;19912;-37
2023/04/30 00:18:53;;;;;;;;;;;;;;;18.03;48.26;99383.41;5092746;28;19912;-37
2023/04/30 00:21:18;;;;;;;;;;;;;;;17.96;47.84;99374.75;5092818;28;19912;-37
2023/04/30 00:23:44;;;;;;;;;;;;;;;18.09;47.07;99368.91;5093183;28;20363;-38
2023/04/30 00:26:09;;;;;;;;;;;;;;;17.96;46.26;99366.69;5092491;28;20012;-35
2023/04/30 00:28:34;;;;;;;;;;;;;;;18.04;46.17;99368.88;5092282;28;20411;-37
2023/04/30 00:31:00;;;;;;;;;;;;;;;18.18;46.70;99374.56;5092523;28;20388;-35
2023/04/30 00:33:25;;;;;;;;;;;;;;;18.20;46.90;99380.53;5092731;28;19973;-36
2023/04/30 00:35:50;;;;;;;;;;;;;;;18.18;47.18;99388.03;5092547;28;20001;-35
2023/04/30 00:38:16;;;;;;;;;;;;;;;18.08;47.79;99372.66;5092440;28;19916;-38
2023/04/30 00:40:42;;;;;;;;;;;;;;;18.02;48.20;99373.69;5092525;28;19912;-35
2023/04/30 00:43:07;;;;;;;;;;;;;;;18.10;47.79;99375.09;5092124;28;19920;-36
2023/04/30 00:45:32;;;;;;;;;;;;;;;18.08;48.56;99377.22;5092676;28;19971;-36
2023/04/30 00:47:58;;;;;;;;;;;;;;;18.01;48.55;99373.94;5092921;28;20006;-36
2023/04/30 00:50:24;;;;;;;;;;;;;;;18.00;48.63;99378.53;5092728;28;19924;-36
2023/04/30 00:52:49;;;;;;;;;;;;;;;18.01;48.71;99374.78;5089627;28;19922;-36
2023/04/30 00:55:15;;;;;;;;;;;;;;;18.08;48.02;99374.53;5092958;28;19938;-36
2023/04/30 00:57:40;;;;;;;;;;;;;;;17.92;49.16;99366.38;5092585;28;20027;-35
2023/04/30 01:00:09;;;;;;;;;;;;;;;17.99;48.10;99371.53;5092764;28;19912;-36
2023/04/30 01:02:35;;;;;;;;;;;;;;;17.75;47.54;99368.41;5092242;28;20348;-36
2023/04/30 01:05:01;;;;;;;;;;;;;;;17.49;45.69;99360.16;5092469;28;19912;-36
2023/04/30 01:07:27;;;;;;;;;;;;;;;17.53;45.94;99366.63;5092490;28;20010;-36
2023/04/30 01:09:52;;;;;;;;;;;;;;;17.38;45.64;99356.59;5092740;28;20000;-36
2023/04/30 01:12:21;;;;;;;;;;;;;;;17.29;45.59;99363.50;5092578;28;19997;-36
2023/04/30 01:14:49;;;;;;;;;;;;;;;17.16;45.38;99361.25;5092473;28;20288;-36
2023/04/30 01:17:26;;;;;;;;;;;;;;;17.42;44.67;99362.28;5092654;28;20052;-36
2023/04/30 01:19:53;;;;;;;;;;;;;;;17.42;44.83;99362.28;5092213;28;19944;-36
2023/04/30 01:22:27;;;;;;;;;;;;;;;17.27;44.62;99356.75;5092037;28;20364;-35
2023/04/30 01:25:04;;;;;;;;;;;;;;;17.25;45.11;99365.09;5091739;28;19920;-36
2023/04/30 01:27:35;;;;;;;;;;;;;;;17.37;45.35;99357.66;5092004;28;19923;-36
2023/04/30 01:30:02;;;;;;;;;;;;;;;16.99;45.21;99353.31;5091047;28;19974;-36
2023/04/30 01:32:27;;;;;;;;;;;;;;;17.04;44.35;99361.44;5091988;28;20011;-36
2023/04/30 01:34:52;;;;;;;;;;;;;;;17.10;44.85;99356.91;5092082;28;19959;-36
2023/04/30 01:37:18;;;;;;;;;;;;;;;17.17;44.17;99358.31;5092040;28;19919;-36
2023/04/30 01:40:01;;;;;;;;;;;;;;;17.24;43.86;99366.16;5092118;28;19920;-35
2023/04/30 01:42:35;;;;;;;;;;;;;;;17.03;43.87;99357.09;5091774;28;19923;-37
2023/04/30 01:45:07;;;;;;;;;;;;;;;16.84;44.19;99362.03;5091972;28;19912;-35
2023/04/30 01:47:40;;;;;;;;;;;;;;;16.75;45.12;99350.91;5092137;28;19912;-35
2023/04/30 01:50:05;;;;;;;;;;;;;;;16.67;44.61;99348.66;5091787;28;19924;-36
2023/04/30 01:52:34;;;;;;;;;;;;;;;16.91;44.25;99351.09;5091599;28;20006;-37
2023/04/30 01:55:03;;;;;;;;;;;;;;;16.98;45.01;99351.66;5091645;28;20364;-36
2023/04/30 01:57:34;;;;;;;;;;;;;;;17.08;44.66;99357.16;5091197;28;20034;-36
2023/04/30 02:00:00;;;;;;;;;;;;;;;17.19;44.67;99350.81;5091494;28;19919;-36
2023/04/30 02:02:25;;;;;;;;;;;;;;;17.12;44.98;99347.50;5091419;28;19912;-41
2023/04/30 02:04:50;;;;;;;;;;;;;;;17.11;45.23;99348.56;5091571;28;19912;-43
2023/04/30 02:07:19;;;;;;;;;;;;;;;17.18;45.76;99338.41;5091391;28;19912;-41
2023/04/30 02:09:45;;;;;;;;;;;;;;;17.35;45.78;99343.66;5091636;28;20286;-41
2023/04/30 02:12:10;;;;;;;;;;;;;;;17.10;45.78;99343.47;5091216;28;19917;-42
2023/04/30 02:14:35;;;;;;;;;;;;;;;16.68;46.67;99347.63;5091222;28;19965;-41
2023/04/30 02:17:01;;;;;;;;;;;;;;;16.73;46.65;99344.16;5091360;28;19912;-41
2023/04/30 02:19:26;;;;;;;;;;;;;;;16.79;45.41;99346.66;5091065;28;20384;-41
2023/04/30 02:21:51;;;;;;;;;;;;;;;16.92;45.21;99344.63;5091045;28;19919;-42
2023/04/30 02:24:16;;;;;;;;;;;;;;;17.09;44.99;99348.00;5089477;28;19926;-41
2023/04/30 02:26:42;;;;;;;;;;;;;;;16.94;45.90;99347.88;5090996;28;20320;-42
2023/04/30 02:29:07;;;;;;;;;;;;;;;16.86;45.45;99353.72;5091312;28;19920;-41
2023/04/30 02:31:32;;;;;;;;;;;;;;;16.79;46.22;99346.66;5090899;28;20272;-41
2023/04/30 02:33:58;;;;;;;;;;;;;;;16.38;46.24;99353.47;5091304;28;19912;-41
2023/04/30 02:36:23;;;;;;;;;;;;;;;16.53;45.42;99350.13;5091144;28;20420;-41
2023/04/30 02:38:48;;;;;;;;;;;;;;;16.73;44.83;99342.28;5091187;28;19912;-41
2023/04/30 02:41:13;;;;;;;;;;;;;;;16.72;45.12;99347.91;5090980;28;19919;-41
2023/04/30 02:43:39;;;;;;;;;;;;;;;16.70;44.58;99348.16;5091555;28;20376;-41
2023/04/30 02:46:04;;;;;;;;;;;;;;;16.83;44.75;99344.31;5090613;28;20480;-40
2023/04/30 02:48:29;;;;;;;;;;;;;;;16.68;45.15;99344.94;5090860;28;19912;-40
2023/04/30 02:50:55;;;;;;;;;;;;;;;16.87;45.35;99342.72;5090994;28;19919;-40
2023/04/30 02:53:20;;;;;;;;;;;;;;;16.80;46.16;99340.19;5090854;28;19916;-40
2023/04/30 02:55:46;;;;;;;;;;;;;;;16.90;46.22;99344.09;5090677;28;19919;-40
2023/04/30 02:58:12;;;;;;;;;;;;;;;16.88;47.39;99346.22;5090759;28;19912;-41
2023/04/30 03:00:37;;;;;;;;;;;;;;;16.60;47.19;99342.66;5090265;28;19919;-41
2023/04/30 03:03:02;;;;;;;;;;;;;;;16.56;47.73;99355.00;5090706;28;19985;-40
2023/04/30 03:05:29;;;;;;;;;;;;;;;16.70;48.15;99348.16;5091049;28;20353;-41
2023/04/30 03:07:54;;;;;;;;;;;;;;;16.72;46.91;99350.59;5090974;28;20003;-41
2023/04/30 03:10:20;;;;;;;;;;;;;;;16.86;47.30;99351.84;5090683;28;20364;-41
2023/04/30 03:12:45;;;;;;;;;;;;;;;16.97;46.55;99347.38;5091006;28;20285;-41
2023/04/30 03:15:10;;;;;;;;;;;;;;;17.01;46.76;99351.16;5090857;28;20014;-42
2023/04/30 03:17:36;;;;;;;;;;;;;;;17.04;47.57;99356.06;5091147;28;19980;-41
2023/04/30 03:20:01;;;;;;;;;;;;;;;17.06;46.98;99359.28;5090478;28;19912;-42
2023/04/30 03:22:26;;;;;;;;;;;;;;;17.09;47.39;99364.13;5090452;28;19916;-43
2023/04/30 03:24:52;;;;;;;;;;;;;;;17.05;47.37;99368.41;5090545;28;19916;-41
2023/04/30 03:27:17;;;;;;;;;;;;;;;17.16;46.40;99358.56;5090653;28;19920;-41
2023/04/30 03:29:42;;;;;;;;;;;;;;;17.18;46.79;99364.50;5090492;28;19919;-41
2023/04/30 03:32:08;;;;;;;;;;;;;;;17.16;46.85;99366.63;5089817;28;19916;-41
2023/04/30 03:34:33;;;;;;;;;;;;;;;17.24;46.42;99368.03;5090896;28;20002;-41
2023/04/30 03:37:00;;;;;;;;;;;;;;;17.30;46.23;99378.56;5091577;28;20289;-41
2023/04/30 03:39:26;;;;;;;;;;;;;;;17.12;46.61;99378.97;5094514;28;20300;-41
2023/04/30 03:41:51;;;;;;;;;;;;;;;16.88;47.93;99392.69;5094217;28;19912;-41
2023/04/30 03:44:16;;;;;;;;;;;;;;;16.51;49.90;99388.00;5094217;28;19976;-41
2023/04/30 03:46:44;;;;;;;;;;;;;;;16.54;49.68;99386.66;5094663;28;19916;-41
2023/04/30 03:49:10;;;;;;;;;;;;;;;16.81;48.87;99392.06;5094283;28;19919;-41
2023/04/30 03:51:38;;;;;;;;;;;;;;;16.79;49.08;99392.34;5094109;28;19912;-42
2023/04/30 03:54:05;;;;;;;;;;;;;;;16.92;48.86;99401.06;5094208;28;19984;-43
2023/04/30 03:56:30;;;;;;;;;;;;;;;16.85;49.23;99401.28;5094179;28;19957;-41
2023/04/30 03:58:55;;;;;;;;;;;;;;;16.88;48.70;99399.97;5093870;28;19912;-43
2023/04/30 04:01:21;;;;;;;;;;;;;;;16.85;49.47;99403.16;5094215;28;19912;-42
2023/04/30 04:03:46;;;;;;;;;;;;;;;16.91;48.85;99408.34;5094179;28;19969;-40
2023/04/30 04:06:11;;;;;;;;;;;;;;;16.98;49.40;99405.44;5094049;28;20017;-43
2023/04/30 04:08:36;;;;;;;;;;;;;;;17.13;49.00;99410.16;5093844;28;19923;-42
2023/04/30 04:11:02;;;;;;;;;;;;;;;17.22;48.67;99408.63;5093673;28;19956;-42
2023/04/30 04:13:27;;;;;;;;;;;;;;;17.01;49.93;99407.63;5093746;28;19920;-41
2023/04/30 04:15:52;;;;;;;;;;;;;;;17.14;48.93;99417.16;5093580;28;20375;-42
2023/04/30 04:18:18;;;;;;;;;;;;;;;17.05;49.88;99410.63;5093597;28;19912;-42
2023/04/30 04:20:43;;;;;;;;;;;;;;;17.16;49.20;99415.03;5093861;28;19959;-41
2023/04/30 04:23:08;;;;;;;;;;;;;;;17.12;49.28;99408.53;5093369;28;19912;-42
2023/04/30 04:25:34;;;;;;;;;;;;;;;17.05;50.34;99419.47;5093272;28;19920;-42
2023/04/30 04:27:59;;;;;;;;;;;;;;;17.05;50.21;99419.47;5093882;28;19942;-41
2023/04/30 04:30:25;;;;;;;;;;;;;;;16.75;52.00;99418.09;5093241;28;19982;-42
2023/04/30 04:32:53;;;;;;;;;;;;;;;16.74;52.42;99426.41;5092968;28;19927;-42
2023/04/30 04:35:18;;;;;;;;;;;;;;;17.07;50.28;99421.91;5093099;28;20273;-42
2023/04/30 04:37:43;;;;;;;;;;;;;;;16.95;50.20;99419.38;5093154;28;19951;-43
2023/04/30 04:40:11;;;;;;;;;;;;;;;17.12;49.94;99401.28;5093093;28;19912;-42
2023/04/30 04:42:37;;;;;;;;;;;;;;;17.36;49.61;99415.22;5093047;28;19946;-42
2023/04/30 04:45:03;;;;;;;;;;;;;;;17.50;48.68;99418.28;5092416;28;19927;-44
2023/04/30 04:47:28;;;;;;;;;;;;;;;17.62;48.73;99415.41;5092338;28;19919;-42
2023/04/30 04:49:54;;;;;;;;;;;;;;;17.76;48.54;99415.75;5092843;28;20323;-43
2023/04/30 04:52:19;;;;;;;;;;;;;;;17.98;47.97;99421.88;5092144;28;20105;-42
2023/04/30 04:54:45;;;;;;;;;;;;;;;18.02;47.75;99424.84;5092681;28;20367;-44
2023/04/30 04:57:10;;;;;;;;;;;;;;;18.22;47.05;99434.94;5092728;28;19912;-44
2023/04/30 04:59:35;;;;;;;;;;;;;;;18.42;47.16;99423.44;5092622;28;19912;-43
2023/04/30 05:02:00;;;;;;;;;;;;;;;18.36;48.17;99430.69;5092294;28;19912;-42
2023/04/30 05:04:26;;;;;;;;;;;;;;;18.47;48.03;99434.25;5091970;28;20012;-44
2023/04/30 05:06:53;;;;;;;;;;;;;;;18.49;48.43;99437.50;5091999;28;19912;-43
2023/04/30 05:09:19;;;;;;;;;;;;;;;18.74;47.81;99438.66;5092485;28;20012;-43
2023/04/30 05:11:45;;;;;;;;;;;;;;;19.14;48.02;99446.06;5092411;28;20004;-41
2023/04/30 05:14:10;;;;;;;;;;;;;;;19.49;47.21;99439.06;5092459;28;19912;-42
2023/04/30 05:16:35;;;;;;;;;;;;;;;19.86;46.67;99435.31;5092410;28;19920;-43
2023/04/30 05:19:01;;;;;;;;;;;;;;;20.23;46.17;99434.16;5092184;28;19912;-42
2023/04/30 05:21:28;;;;;;;;;;;;;;;20.63;45.09;99440.50;5092313;28;19990;-42
2023/04/30 05:23:54;;;;;;;;;;;;;;;21.13;43.98;99437.81;5092253;28;20325;-42
2023/04/30 05:26:19;;;;;;;;;;;;;;;20.98;44.25;99438.72;5092281;28;19928;-42
2023/04/30 05:28:45;;;;;;;;;;;;;;;21.75;42.93;99434.66;5096073;28;20126;-42
2023/04/30 05:31:10;;;;;;;;;;;;;;;22.58;41.04;99438.94;5091837;28;20348;-41
2023/04/30 05:33:35;;;;;;;;;;;;;;;23.17;39.56;99435.97;5091987;28;19923;-41
2023/04/30 05:36:01;;;;;;;;;;;;;;;23.07;39.09;99444.28;5092049;28;20370;-41
2023/04/30 05:38:26;;;;;;;;;;;;;;;23.15;39.16;99440.91;5092258;28;19916;-41
2023/04/30 05:40:52;;;;;;;;;;;;;;;23.09;38.85;99452.94;5091315;28;19912;-40
2023/04/30 05:43:17;;;;;;;;;;;;;;;24.06;37.30;99440.50;5090417;28;19916;-41
2023/04/30 05:45:42;;;;;;;;;;;;;;;24.97;35.54;99437.03;5092036;28;19912;-41
2023/04/30 05:48:08;;;;;;;;;;;;;;;25.74;33.54;99446.13;5092065;28;19915;-41
2023/04/30 05:50:33;;;;;;;;;;;;;;;26.03;32.72;99438.63;5092224;28;20003;-41
2023/04/30 05:52:59;;;;;;;;;;;;;;;25.61;34.03;99436.13;5091657;28;19923;-41
2023/04/30 05:55:25;;;;;;;;;;;;;;;25.93;32.27;99442.41;5091615;28;19912;-42
2023/04/30 05:57:50;;;;;;;;;;;;;;;26.28;32.69;99437.09;5091876;28;19912;-42
2023/04/30 06:00:15;;;;;;;;;;;;;;;26.67;31.57;99441.75;5090850;28;19985;-42
2023/04/30 06:02:41;;;;;;;;;;;;;;;27.08;31.19;99440.50;5091708;28;20402;-39
2023/04/30 06:05:06;;;;;;;;;;;;;;;27.11;30.38;99444.50;5090687;28;20364;-40
2023/04/30 06:07:32;;;;;;;;;;;;;;;27.08;30.40;99451.41;5090936;28;20368;-42
2023/04/30 06:09:57;;;;;;;;;;;;;;;27.05;29.86;99449.31;5090816;28;19946;-41
2023/04/30 06:12:23;;;;;;;;;;;;;;;26.76;30.09;99449.13;5089020;28;20421;-41
2023/04/30 06:14:48;;;;;;;;;;;;;;;27.42;29.39;99449.03;5089532;28;19912;-41
2023/04/30 06:17:14;;;;;;;;;;;;;;;28.23;28.66;99450.91;5088705;28;19965;-40
2023/04/30 06:19:40;;;;;;;;;;;;;;;28.62;28.64;99454.44;5090864;28;19912;-43
2023/04/30 06:22:05;;;;;;;;;;;;;;;29.11;27.71;99453.97;5087628;28;19939;-42
2023/04/30 06:24:30;;;;;;;;;;;;;;;29.68;26.93;99454.44;5088576;28;19914;-42
2023/04/30 06:26:56;;;;;;;;;;;;;;;30.22;26.46;99446.09;5094908;28;19924;-42
2023/04/30 06:29:23;;;;;;;;;;;;;;;30.40;25.40;99449.44;5097642;28;19950;-42
2023/04/30 06:31:48;;;;;;;;;;;;;;;30.31;26.41;99455.03;5081787;28;20002;-42
2023/04/30 06:34:14;;;;;;;;;;;;;;;30.35;26.65;99446.94;5088783;28;19924;-44
2023/04/30 06:36:39;;;;;;;;;;;;;;;29.47;29.22;99449.00;5090229;28;20025;-42
2023/04/30 06:39:05;;;;;;;;;;;;;;;30.15;27.30;99443.91;5090183;28;20315;-41
2023/04/30 06:41:30;;;;;;;;;;;;;;;30.23;27.17;99446.91;5090381;28;19940;-37
2023/04/30 06:43:56;;;;;;;;;;;;;;;30.73;26.17;99443.81;5090204;28;20008;-35
2023/04/30 06:46:21;;;;;;;;;;;;;;;29.34;27.77;99438.00;5089481;28;19916;-36
2023/04/30 06:48:46;;;;;;;;;;;;;;;29.78;27.55;99451.31;5089184;28;19912;-35
2023/04/30 06:51:11;;;;;;;;;;;;;;;29.57;27.53;99440.38;5089805;28;19919;-36
2023/04/30 06:53:37;;;;;;;;;;;;;;;29.73;27.64;99435.06;5088709;28;19919;-36
2023/04/30 06:56:03;;;;;;;;;;;;;;;29.42;27.56;99437.09;5088664;28;19996;-37
2023/04/30 06:58:28;;;;;;;;;;;;;;;28.80;28.53;99430.50;5088522;28;19920;-36
2023/04/30 07:00:53;;;;;;;;;;;;;;;29.51;28.16;99428.81;5089796;28;19950;-35
2023/04/30 07:03:19;;;;;;;;;;;;;;;29.28;28.32;99428.38;5089443;28;19965;-37
2023/04/30 07:05:44;;;;;;;;;;;;;;;29.73;27.42;99426.84;5089359;28;20121;-37
2023/04/30 07:08:09;;;;;;;;;;;;;;;30.32;27.13;99422.91;5089343;28;19912;-37
2023/04/30 07:10:35;;;;;;;;;;;;;;;29.81;27.62;99431.41;5089397;28;19986;-37
2023/04/30 07:13:00;;;;;;;;;;;;;;;30.49;27.08;99417.19;5093566;28;19973;-37
2023/04/30 07:15:25;;;;;;;;;;;;;;;30.11;27.13;99425.75;5093565;28;19912;-37
2023/04/30 07:17:51;;;;;;;;;;;;;;;31.16;25.89;99431.34;5093653;28;19962;-37
2023/04/30 07:20:16;;;;;;;;;;;;;;;30.89;26.16;99424.66;5094117;28;19912;-37
2023/04/30 07:22:43;;;;;;;;;;;;;;;31.09;25.74;99427.59;5093738;28;19912;-36
2023/04/30 07:25:09;;;;;;;;;;;;;;;31.54;25.38;99421.81;5092908;28;20612;-37
2023/04/30 07:27:34;;;;;;;;;;;;;;;31.21;25.40;99426.78;5090719;28;20411;-36
2023/04/30 07:29:59;;;;;;;;;;;;;;;30.93;25.99;99420.09;5092634;28;20018;-36
2023/04/30 07:32:26;;;;;;;;;;;;;;;29.92;26.27;99423.56;5092718;28;19916;-37
2023/04/30 07:34:52;;;;;;;;;;;;;;;30.46;25.95;99422.56;5092507;28;19961;-37
2023/04/30 07:37:17;;;;;;;;;;;;;;;30.31;25.94;99418.53;5092805;28;19954;-36
2023/04/30 07:39:42;;;;;;;;;;;;;;;30.63;25.66;99416.81;5092197;28;19951;-37
2023/04/30 07:42:08;;;;;;;;;;;;;;;30.17;26.21;99411.44;5092349;28;19912;-36
2023/04/30 07:44:33;;;;;;;;;;;;;;;30.23;26.16;99423.00;5092548;28;19912;-37
2023/04/30 07:46:59;;;;;;;;;;;;;;;31.21;24.96;99422.06;5092679;28;20284;-37
2023/04/30 07:49:24;;;;;;;;;;;;;;;31.07;25.40;99422.47;5092464;28;19912;-40
2023/04/30 07:51:50;;;;;;;;;;;;;;;31.50;25.19;99418.16;5093856;28;19942;-37
2023/04/30 07:54:15;;;;;;;;;;;;;;;32.29;24.26;99425.69;5093510;28;19947;-36
2023/04/30 07:56:41;;;;;;;;;;;;;;;32.10;24.54;99425.59;5093729;28;19912;-37
2023/04/30 07:59:06;;;;;;;;;;;;;;;32.09;24.08;99421.25;5093135;28;19912;-36
2023/04/30 08:01:32;;;;;;;;;;;;;;;32.27;23.42;99413.41;5092787;28;19916;-36
2023/04/30 08:03:57;;;;;;;;;;;;;;;31.69;23.91;99411.19;5092819;28;20617;-36
2023/04/30 08:06:23;;;;;;;;;;;;;;;31.64;23.97;99423.22;5092800;28;20352;-36
2023/04/30 08:08:48;;;;;;;;;;;;;;;30.77;24.79;99413.72;5093026;28;19915;-36
2023/04/30 08:11:14;;;;;;;;;;;;;;;29.83;26.20;99415.41;5092196;28;19984;-35
2023/04/30 08:13:40;;;;;;;;;;;;;;;29.85;26.12;99415.88;5092460;28;20300;-36
2023/04/30 08:16:06;;;;;;;;;;;;;;;31.10;24.56;99412.72;5092330;28;19919;-37
2023/04/30 08:18:31;;;;;;;;;;;;;;;31.72;23.67;99403.03;5092555;28;19920;-37
2023/04/30 08:20:56;;;;;;;;;;;;;;;32.62;23.07;99399.69;5092172;28;19912;-37
2023/04/30 08:23:22;;;;;;;;;;;;;;;32.59;22.49;99403.16;5091277;28;19912;-37
2023/04/30 08:25:47;;;;;;;;;;;;;;;32.20;23.02;99396.75;5091594;28;19920;-37
2023/04/30 08:28:12;;;;;;;;;;;;;;;32.52;22.38;99405.75;5093952;28;20357;-37
2023/04/30 08:30:38;;;;;;;;;;;;;;;31.44;23.17;99396.78;5091751;28;20073;-37
2023/04/30 08:33:03;;;;;;;;;;;;;;;31.76;23.15;99394.88;5091654;28;20289;-37
2023/04/30 08:35:29;;;;;;;;;;;;;;;29.90;24.28;99393.72;5091415;28;19931;-37
2023/04/30 08:37:54;;;;;;;;;;;;;;;29.75;23.79;99388.91;5091672;28;19912;-37
2023/04/30 08:40:20;;;;;;;;;;;;;;;30.57;23.80;99385.25;5091683;28;20377;-36
2023/04/30 08:42:49;;;;;;;;;;;;;;;31.49;23.09;99393.78;5091431;28;19916;-36
2023/04/30 08:45:15;;;;;;;;;;;;;;;30.53;24.60;99385.16;5091536;28;19924;-36
2023/04/30 08:47:40;;;;;;;;;;;;;;;31.24;24.20;99393.06;5091931;28;20412;-36
2023/04/30 08:50:06;;;;;;;;;;;;;;;31.91;23.15;99380.31;5091956;28;19916;-36
2023/04/30 08:52:33;;;;;;;;;;;;;;;31.77;23.37;99393.72;5092273;28;19973;-37
2023/04/30 08:55:00;;;;;;;;;;;;;;;31.91;22.63;99382.25;5091930;28;19963;-37
2023/04/30 08:57:25;;;;;;;;;;;;;;;30.90;23.65;99381.53;5092044;28;19919;-37
2023/04/30 08:59:51;;;;;;;;;;;;;;;30.24;24.45;99390.88;5092068;28;19912;-37
2023/04/30 09:02:16;;;;;;;;;;;;;;;31.20;23.89;99379.22;5092225;28;19994;-37
2023/04/30 09:04:41;;;;;;;;;;;;;;;30.12;24.26;99372.47;5091351;28;19961;-37
2023/04/30 09:07:07;;;;;;;;;;;;;;;30.89;23.58;99377.16;5091910;28;19962;-36
2023/04/30 09:09:37;;;;;;;;;;;;;;;30.19;23.44;99361.72;5090160;28;19951;-36
2023/04/30 09:12:16;;;;;;;;;;;;;;;30.68;22.52;99369.13;5101930;28;19916;-36
2023/04/30 09:15:03;;;;;;;;;;;;;;;30.44;22.16;99364.47;5099147;28;19923;-36
2023/04/30 09:17:28;;;;;;;;;;;;;;;30.96;21.57;99364.47;5103394;28;20012;-36
2023/04/30 09:19:55;;;;;;;;;;;;;;;30.05;22.35;99364.03;5110444;28;19971;-37
2023/04/30 09:22:21;;;;;;;;;;;;;;;30.70;21.99;99362.13;5111968;28;19919;-35
2023/04/30 09:24:48;;;;;;;;;;;;;;;30.87;22.75;99365.72;5111430;28;19950;-37
2023/04/30 09:27:22;;;;;;;;;;;;;;;31.10;22.70;99364.06;5104805;28;20328;-37
2023/04/30 09:29:47;;;;;;;;;;;;;;;30.63;22.41;99364.66;5091697;28;19920;-36
2023/04/30 09:32:13;;;;;;;;;;;;;;;30.98;21.86;99358.63;5090840;28;20021;-36
2023/04/30 09:34:38;;;;;;;;;;;;;;;30.06;22.46;99358.19;5090444;28;19925;-36
2023/04/30 09:37:04;;;;;;;;;;;;;;;30.66;22.03;99347.50;5091235;28;19912;-36
2023/04/30 09:39:30;;;;;;;;;;;;;;;28.82;22.99;99350.78;5091505;28;19912;-36
2023/04/30 09:42:08;;;;;;;;;;;;;;;28.71;23.92;99347.66;5091183;28;20364;-36
2023/04/30 09:44:37;;;;;;;;;;;;;;;28.37;23.91;99346.75;5090274;28;19952;-36
2023/04/30 09:47:03;;;;;;;;;;;;;;;29.38;22.95;99343.00;5090398;28;20328;-36
2023/04/30 09:49:28;;;;;;;;;;;;;;;29.22;22.67;99331.09;5090669;28;19923;-37
2023/04/30 09:51:58;;;;;;;;;;;;;;;29.27;23.32;99319.13;5090835;28;20018;-37
2023/04/30 09:54:28;;;;;;;;;;;;;;;28.79;23.31;99322.13;5090721;28;19912;-36
2023/04/30 09:56:55;;;;;;;;;;;;;;;28.37;24.20;99327.59;5090967;28;19919;-36
2023/04/30 09:59:22;;;;;;;;;;;;;;;28.72;23.62;99323.81;5091313;28;19916;-36
2023/04/30 10:01:48;;;;;;;;;;;;;;;29.00;23.63;99322.09;5091944;28;19912;-37
2023/04/30 10:04:14;;;;;;;;;;;;;;;29.72;22.47;99308.13;5090741;28;19981;-36
2023/04/30 10:06:40;;;;;;;;;;;;;;;29.97;22.79;99314.44;5091143;28;20424;-37
2023/04/30 10:09:07;;;;;;;;;;;;;;;30.19;21.77;99318.63;5091011;28;19912;-36
2023/04/30 10:11:34;;;;;;;;;;;;;;;29.93;21.61;99320.91;5090665;28;19912;-36
2023/04/30 10:14:02;;;;;;;;;;;;;;;30.07;21.87;99312.38;5089084;28;20011;-36
2023/04/30 10:16:39;;;;;;;;;;;;;;;30.62;21.67;99310.91;5090524;28;19916;-36
2023/04/30 10:19:17;;;;;;;;;;;;;;;30.42;22.25;99315.41;5090557;28;20071;-36
2023/04/30 10:21:45;;;;;;;;;;;;;;;30.51;22.35;99309.78;5090978;28;19912;-36
2023/04/30 10:24:11;;;;;;;;;;;;;;;30.32;22.45;99305.72;5090873;28;19916;-35
2023/04/30 10:26:37;;;;;;;;;;;;;;;29.25;23.04;99300.28;5090523;28;19920;-36
2023/04/30 10:29:02;;;;;;;;;;;;;;;30.23;21.78;99302.25;5090579;28;19962;-37
2023/04/30 10:31:29;;;;;;;;;;;;;;;30.37;21.55;99294.50;5090672;28;19988;-36
2023/04/30 10:34:03;;;;;;;;;;;;;;;29.98;21.75;99301.50;5090622;28;19922;-38
2023/04/30 10:36:36;;;;;;;;;;;;;;;29.53;22.73;99297.72;5090506;28;19923;-36
2023/04/30 10:39:02;;;;;;;;;;;;;;;29.34;23.46;99298.25;5090714;28;19931;-36
2023/04/30 10:41:28;;;;;;;;;;;;;;;29.01;23.28;99290.03;5090105;28;19919;-36
2023/04/30 10:44:00;;;;;;;;;;;;;;;29.59;23.69;99290.06;5090169;28;19999;-37
2023/04/30 10:46:27;;;;;;;;;;;;;;;29.33;23.49;99288.44;5090035;28;20022;-37
2023/04/30 10:48:53;;;;;;;;;;;;;;;28.23;24.70;99291.47;5089817;28;19920;-37
2023/04/30 10:51:19;;;;;;;;;;;;;;;29.21;24.14;99285.69;5090409;28;19920;-37
2023/04/30 10:53:47;;;;;;;;;;;;;;;29.82;22.97;99283.00;5089928;28;20407;-36
2023/04/30 10:56:13;;;;;;;;;;;;;;;29.05;24.17;99283.56;5090448;28;20404;-36
2023/04/30 10:58:39;;;;;;;;;;;;;;;29.59;23.95;99288.13;5090337;28;19985;-37
2023/04/30 11:01:05;;;;;;;;;;;;;;;29.58;23.75;99282.97;5090563;28;19912;-37
2023/04/30 11:03:33;;;;;;;;;;;;;;;29.38;24.02;99280.00;5090028;28;19913;-36
2023/04/30 11:06:02;;;;;;;;;;;;;;;28.73;24.48;99285.16;5090544;28;20006;-37
2023/04/30 11:08:34;;;;;;;;;;;;;;;28.06;25.10;99285.00;5090690;28;19912;-36
2023/04/30 11:11:04;;;;;;;;;;;;;;;28.34;25.15;99273.53;5090303;28;19912;-34
2023/04/30 11:13:40;;;;;;;;;;;;;;;28.99;23.95;99278.63;5090189;28;20414;-36
2023/04/30 11:16:05;;;;;;;;;;;;;;;29.23;24.12;99272.44;5090260;28;20284;-36
2023/04/30 11:18:31;;;;;;;;;;;;;;;29.60;23.07;99269.72;5090409;28;20339;-36
2023/04/30 11:20:57;;;;;;;;;;;;;;;30.02;23.09;99275.81;5090666;28;19912;-37
2023/04/30 11:23:23;;;;;;;;;;;;;;;29.97;23.44;99265.06;5089767;28;20280;-36
2023/04/30 11:25:48;;;;;;;;;;;;;;;30.12;23.50;99273.69;5090074;28;19920;-37
2023/04/30 11:28:16;;;;;;;;;;;;;;;29.88;23.34;99271.81;5090157;28;19916;-36
2023/04/30 11:30:51;;;;;;;;;;;;;;;29.77;23.12;99265.97;5089901;28;19961;-36
2023/04/30 11:33:17;;;;;;;;;;;;;;;29.65;22.62;99255.78;5090029;28;19916;-36
2023/04/30 11:35:42;;;;;;;;;;;;;;;29.70;23.13;99255.56;5090232;28;20361;-36
2023/04/30 11:38:08;;;;;;;;;;;;;;;29.51;23.11;99250.66;5090054;28;19912;-36
2023/04/30 11:40:34;;;;;;;;;;;;;;;29.30;24.61;99248.03;5090064;28;19919;-35
2023/04/30 11:42:59;;;;;;;;;;;;;;;29.23;24.10;99242.31;5089564;28;19912;-36
2023/04/30 11:45:26;;;;;;;;;;;;;;;28.85;24.25;99237.84;5089279;28;19912;-36
2023/04/30 11:47:53;;;;;;;;;;;;;;;29.34;23.98;99239.91;5089637;28;19916;-36
2023/04/30 11:50:28;;;;;;;;;;;;;;;29.01;23.82;99241.53;5089876;28;20454;-36
2023/04/30 11:52:58;;;;;;;;;;;;;;;29.00;24.74;99236.41;5089866;28;19916;-37
2023/04/30 11:55:24;;;;;;;;;;;;;;;28.17;24.50;99235.38;5089038;28;19973;-35
2023/04/30 11:57:50;;;;;;;;;;;;;;;28.43;24.44;99232.44;5089684;28;19999;-37
2023/04/30 12:00:17;;;;;;;;;;;;;;;28.19;25.47;99235.84;5093224;28;19919;-35
2023/04/30 12:02:47;;;;;;;;;;;;;;;28.71;24.16;99235.44;5093086;28;19912;-35
2023/04/30 12:05:16;;;;;;;;;;;;;;;28.44;24.73;99232.09;5092810;28;19919;-35
2023/04/30 12:07:48;;;;;;;;;;;;;;;28.50;23.85;99231.88;5093273;28;19912;-35
2023/04/30 12:10:14;;;;;;;;;;;;;;;29.12;23.50;99225.47;5093222;28;19947;-37
2023/04/30 12:12:42;;;;;;;;;;;;;;;29.72;22.89;99220.38;5091259;28;20437;-37
2023/04/30 12:15:14;;;;;;;;;;;;;;;29.85;22.64;99221.19;5092946;28;19916;-37
2023/04/30 12:17:40;;;;;;;;;;;;;;;29.75;22.80;99224.41;5093029;28;20300;-35
2023/04/30 12:20:06;;;;;;;;;;;;;;;29.67;22.72;99215.13;5093030;28;20472;-37
2023/04/30 12:22:31;;;;;;;;;;;;;;;28.25;23.81;99212.59;5092959;28;19912;-37
2023/04/30 12:24:58;;;;;;;;;;;;;;;28.86;23.37;99209.31;5092096;28;20550;-36
2023/04/30 12:27:23;;;;;;;;;;;;;;;28.66;23.56;99214.53;5101309;28;19954;-37
2023/04/30 12:29:49;;;;;;;;;;;;;;;27.43;25.31;99226.59;5113066;28;19959;-36
2023/04/30 12:32:18;;;;;;;;;;;;;;;26.03;28.02;99221.34;5113552;28;19958;-36
2023/04/30 12:34:43;;;;;;;;;;;;;;;24.94;30.83;99232.72;5112923;28;19946;-36
2023/04/30 12:37:08;;;;;;;;;;;;;;;23.89;36.25;99258.25;5111406;28;19959;-36
2023/04/30 12:39:34;;;;;;;;;;;;;;;22.59;42.11;99275.16;5112223;28;19960;-36
2023/04/30 12:42:00;;;;;;;;;;;;;;;22.39;44.37;99291.69;5111411;28;20439;-35
2023/04/30 12:44:26;;;;;;;;;;;;;;;22.20;43.28;99303.31;5112500;27;19916;-36